Wainwright, AK (99782)

7:36 PM AKST on February 24, 2017 (GMT -0900)
Wainwright | | Change Station
Active Advisory: Blizzard Watch

Elev 39 ft 70.63 °N, 159.98 °W | Updated 43 minutes ago

Snow
Snow
-8 °F
Feels Like -28 °F
N
13
Wind Variable Wind from ENE

Today
High -- | Low -- °F
--% Chance of Precip.
Yesterday
High -- | Low -- °F
Precip. -- in
Pressure 30.19 in
Visibility 5.0 miles
Clouds Mostly Cloudy 5000 ft
Overcast 7000 ft
Windchill -28 °F
Dew Point -12 °F
Humidity 83%
Rainfall 0.00 in
Snow Depth Not available.
9:31 AM 6:16 PM
Waning Crescent, 2% visible
METAR PAWI 250353Z AUTO 07011KT 5SM -SN BR BKN050 OVC070 M22/M24 A3018 RMK AO2 UPB10E29SNE10B29 SLP221 P0000 T12221244 TSNO
Pressure 30.19 in
Visibility 5.0 miles
Clouds Mostly Cloudy 5000 ft
Overcast 7000 ft
Windchill -28 °F
Dew Point -12 °F
Humidity 83%
Rainfall 0.00 in
Snow Depth Not available.
9:31 AM 6:16 PM
Waning Crescent, 2% visible
METAR PAWI 250353Z AUTO 07011KT 5SM -SN BR BKN050 OVC070 M22/M24 A3018 RMK AO2 UPB10E29SNE10B29 SLP221 P0000 T12221244 TSNO

Get Your Daily Forecast Email!

Thanks for signing up!

Be on the lookout for a verification email in your inbox.

You'll start receiving the daily forecast at 8 AM.

×

10-Day Weather Forecast

Almanac

Astronomy

Feb. 24, 2017 Rise Set
Actual Time
Civil Twilight
Nautical Twilight
Astronomical Twilight
Moon
Length of Visible Light
Length of Day
Tomorrow will be .
, % of the Moon is Illuminated

Today's Extremes

State Highs State Lows

Community

WunderPhotos

Upload Photos

1,962,540 photos uploaded!

WunderBlog® & News

Nearby

Air Quality

  Air Quality AQ Index Pollutant
Not available.

Snow Depth

Station Depth Elevation

Earthquake Activity

City Distance Mag. Time & Date
Minimum magnitude displayed is 2.5.

Coastal Water Temperatures

Place Temperature

Stations

Nearby Weather Stations

Station Location Temp. Windchill Dew Point Humidity Wind Precip. Elev Updated Type
                   

Watches & Warnings

Blizzard Watch
Issued: 5:41 PM AKST Feb. 24, 2017 – National Weather Service

... Blizzard watch remains in effect from Saturday afternoon
through Sunday afternoon...

* blowing snow... reducing visibility to near zero at times.

* Winds... east at 20 to 30 mph with gusts to 50 mph.

* Snow... 3 to 7 inches.

* Timing... snow and winds will increase Saturday afternoon with
the strongest winds and the worst visibility are expected
Saturday evening and early Sunday morning. Conditions are
expected to improve late Sunday morning.

* Impacts... visibility will be very poor and snow will
accumulate into drifts. Whiteout conditions may occur. Travel
and outdoor activities will be difficult.

Precautionary/preparedness actions...

A blizzard watch means there is a potential for falling and/or
blowing snow with strong winds and very poor visibilities.